createdAt,value
2023-04-10T00:02:02.609Z,6.70
2023-04-10T00:04:31.129Z,6.90
2023-04-10T00:07:04.048Z,6.80
2023-04-10T00:09:34.372Z,6.80
2023-04-10T00:12:02.951Z,6.70
2023-04-10T00:14:33.914Z,6.70
2023-04-10T00:17:02.489Z,6.60
2023-04-10T00:19:30.902Z,6.50
2023-04-10T00:21:59.436Z,6.50
2023-04-10T00:24:27.979Z,6.50
2023-04-10T00:26:58.343Z,6.40
2023-04-10T00:29:26.770Z,6.40
2023-04-10T00:31:55.520Z,6.30
2023-04-10T00:34:24.156Z,6.30
2023-04-10T00:36:52.595Z,6.30
2023-04-10T00:39:20.966Z,6.30
2023-04-10T00:41:49.264Z,6.30
2023-04-10T00:44:19.065Z,6.20
2023-04-10T00:46:49.864Z,6.20
2023-04-10T00:49:18.623Z,6.20
2023-04-10T00:51:47.084Z,6.20
2023-04-10T00:54:15.661Z,6.30
2023-04-10T00:56:47.063Z,6.20
2023-04-10T00:59:15.903Z,6.10
2023-04-10T01:01:45.843Z,6.10
2023-04-10T01:04:16.384Z,6.00
2023-04-10T01:06:58.326Z,6.10
2023-04-10T01:09:36.684Z,6.00
2023-04-10T01:12:17.129Z,6.10
2023-04-10T01:15:03.051Z,6.00
2023-04-10T01:17:43.987Z,5.90
2023-04-10T01:20:17.040Z,6.00
2023-04-10T01:23:06.755Z,5.80
2023-04-10T01:25:51.585Z,5.90
2023-04-10T01:28:53.333Z,5.70
2023-04-10T01:31:28.207Z,5.70
2023-04-10T01:34:03.427Z,5.60
2023-04-10T01:36:37.752Z,5.60
2023-04-10T01:39:09.524Z,5.60
2023-04-10T01:41:46.074Z,5.50
2023-04-10T01:44:19.462Z,5.50
2023-04-10T01:46:50.105Z,5.50
2023-04-10T01:49:19.185Z,5.40
2023-04-10T01:51:48.300Z,5.40
2023-04-10T01:54:18.258Z,5.30
2023-04-10T01:56:46.786Z,5.30
2023-04-10T01:59:18.959Z,5.20
2023-04-10T02:01:47.331Z,5.20
2023-04-10T02:04:15.690Z,5.20
2023-04-10T02:07:01.787Z,5.10
2023-04-10T02:09:41.932Z,5.10
2023-04-10T02:12:17.152Z,5.00
2023-04-10T02:14:48.675Z,5.00
2023-04-10T02:17:22.541Z,4.80
2023-04-10T02:19:55.765Z,4.90
2023-04-10T02:22:26.799Z,4.90
2023-04-10T02:24:55.504Z,4.90
2023-04-10T02:27:31.200Z,4.90
2023-04-10T02:30:04.476Z,4.80
2023-04-10T02:32:35.267Z,4.70
2023-04-10T02:35:04.169Z,4.80
2023-04-10T02:37:33.362Z,4.80
2023-04-10T02:40:09.308Z,4.70
2023-04-10T02:42:54.135Z,4.70
2023-04-10T02:45:24.565Z,4.60
2023-04-10T02:47:53.137Z,4.60
2023-04-10T02:50:25.644Z,4.60
2023-04-10T02:52:55.237Z,4.60
2023-04-10T02:55:23.599Z,4.50
2023-04-10T02:57:52.202Z,4.60
2023-04-10T03:00:20.801Z,4.60
2023-04-10T03:03:11.934Z,4.40
2023-04-10T03:05:53.334Z,4.40
2023-04-10T03:08:30.430Z,4.40
2023-04-10T03:10:59.021Z,4.30
2023-04-10T03:13:27.498Z,4.30
2023-04-10T03:15:56.045Z,4.30
2023-04-10T03:18:26.035Z,4.40
2023-04-10T03:20:56.290Z,4.30
2023-04-10T03:23:24.728Z,4.20
2023-04-10T03:25:54.941Z,4.20
2023-04-10T03:28:31.526Z,4.20
2023-04-10T03:31:03.151Z,4.10
2023-04-10T03:33:37.252Z,4.10
2023-04-10T03:36:06.204Z,4.10
2023-04-10T03:38:34.958Z,4.10
2023-04-10T03:41:03.961Z,4.10
2023-04-10T03:43:34.345Z,4.10
2023-04-10T03:46:05.064Z,4.20
2023-04-10T03:48:33.707Z,4.00
2023-04-10T03:51:03.908Z,4.00
2023-04-10T03:53:36.166Z,3.90
2023-04-10T03:56:09.870Z,4.00
2023-04-10T03:58:38.508Z,4.10
2023-04-10T04:01:07.812Z,4.10
2023-04-10T04:03:51.937Z,4.10
2023-04-10T04:06:44.743Z,4.10
2023-04-10T04:09:33.447Z,4.00
2023-04-10T04:12:21.840Z,4.20
2023-04-10T04:15:06.037Z,4.20
2023-04-10T04:17:47.016Z,4.10
2023-04-10T04:20:37.018Z,4.20
2023-04-10T04:23:24.920Z,4.20
2023-04-10T04:26:07.055Z,4.20
2023-04-10T04:29:07.476Z,4.30
2023-04-10T04:31:43.617Z,4.30
2023-04-10T04:34:31.446Z,4.40
2023-04-10T04:37:14.940Z,4.40
2023-04-10T04:40:19.915Z,4.40
2023-04-10T04:43:15.614Z,4.50
2023-04-10T04:46:16.199Z,4.60
2023-04-10T04:48:56.613Z,4.70
2023-04-10T04:51:43.182Z,4.70
2023-04-10T04:54:31.686Z,4.80
2023-04-10T04:57:15.523Z,4.90
2023-04-10T05:00:07.712Z,5.00
2023-04-10T05:02:57.146Z,5.10
2023-04-10T05:06:00.846Z,5.20
2023-04-10T05:08:39.656Z,5.30
2023-04-10T05:11:26.542Z,5.40
2023-04-10T05:14:14.918Z,5.60
2023-04-10T05:16:52.187Z,5.70
2023-04-10T05:19:44.684Z,5.80
2023-04-10T05:22:36.051Z,5.90
2023-04-10T05:25:27.179Z,6.10
2023-04-10T05:28:04.188Z,6.30
2023-04-10T05:30:55.999Z,6.30
2023-04-10T05:33:47.385Z,6.40
2023-04-10T05:36:50.935Z,6.70
2023-04-10T05:39:26.157Z,6.80
2023-04-10T05:42:10.413Z,7.10
2023-04-10T05:44:55.052Z,7.30
2023-04-10T05:47:52.998Z,7.60
2023-04-10T05:50:39.707Z,8.20
2023-04-10T05:53:14.755Z,8.40
2023-04-10T05:56:03.310Z,8.90
2023-04-10T05:59:00.206Z,9.50
2023-04-10T06:01:47.513Z,9.80
2023-04-10T06:04:18.314Z,10.00
2023-04-10T06:06:47.583Z,10.10
2023-04-10T06:09:15.932Z,10.30
2023-04-10T06:11:44.253Z,10.40
2023-04-10T06:14:15.324Z,10.70
2023-04-10T06:16:52.379Z,11.30
2023-04-10T06:19:22.419Z,12.00
2023-04-10T06:21:53.927Z,12.80
2023-04-10T06:24:25.564Z,13.50
2023-04-10T06:26:57.341Z,13.80
2023-04-10T06:29:26.217Z,14.20
2023-04-10T06:31:54.855Z,14.70
2023-04-10T06:34:24.639Z,15.00
2023-04-10T06:37:01.514Z,15.30
2023-04-10T06:39:29.965Z,16.00
2023-04-10T06:42:02.759Z,16.60
2023-04-10T06:44:53.851Z,16.20
2023-04-10T06:47:24.822Z,16.40
2023-04-10T06:49:54.628Z,16.50
2023-04-10T06:52:23.044Z,16.50
2023-04-10T06:54:51.352Z,16.60
2023-04-10T06:57:20.045Z,16.60
2023-04-10T06:59:48.414Z,16.60
2023-04-10T07:02:17.012Z,16.10
2023-04-10T07:04:45.729Z,17.10
2023-04-10T07:07:16.068Z,17.00
2023-04-10T07:09:46.064Z,16.80
2023-04-10T07:12:14.608Z,17.60
2023-04-10T07:14:43.177Z,17.30
2023-04-10T07:17:11.584Z,17.40
2023-04-10T07:19:39.957Z,17.50
2023-04-10T07:22:08.532Z,17.60
2023-04-10T07:24:38.231Z,17.20
2023-04-10T07:27:07.073Z,17.50
2023-04-10T07:29:35.800Z,17.40
2023-04-10T07:32:04.305Z,17.20
2023-04-10T07:34:33.162Z,17.60
2023-04-10T07:37:01.710Z,18.00
2023-04-10T07:39:40.290Z,18.20
2023-04-10T07:42:12.282Z,17.90
2023-04-10T07:44:40.947Z,17.90
2023-04-10T07:47:11.653Z,18.20
2023-04-10T07:49:41.311Z,18.10
2023-04-10T07:52:09.692Z,18.30
2023-04-10T07:54:38.201Z,18.20
2023-04-10T07:57:06.722Z,18.00
2023-04-10T07:59:43.932Z,18.30
2023-04-10T08:02:18.418Z,18.50
2023-04-10T08:04:51.750Z,18.80
2023-04-10T08:07:21.734Z,18.70
2023-04-10T08:09:50.199Z,18.90
2023-04-10T08:12:18.554Z,19.00
2023-04-10T08:14:48.412Z,18.90
2023-04-10T08:17:16.926Z,19.00
2023-04-10T08:19:45.440Z,19.30
2023-04-10T08:22:13.874Z,19.20
2023-04-10T08:24:44.522Z,19.20
2023-04-10T08:27:16.487Z,19.30
2023-04-10T08:29:45.325Z,19.80
2023-04-10T08:32:15.380Z,19.70
2023-04-10T08:34:43.996Z,19.50
2023-04-10T08:37:15.744Z,19.20
2023-04-10T08:39:44.253Z,19.00
2023-04-10T08:42:12.936Z,18.90
2023-04-10T08:44:41.883Z,19.00
2023-04-10T08:47:10.826Z,18.60
2023-04-10T08:49:46.020Z,18.60
2023-04-10T08:52:21.551Z,18.60
2023-04-10T08:54:56.106Z,18.30
2023-04-10T08:57:24.658Z,17.80
2023-04-10T08:59:53.511Z,17.00
2023-04-10T09:02:25.738Z,16.90
2023-04-10T09:05:00.611Z,16.70
2023-04-10T09:07:29.044Z,16.70
2023-04-10T09:09:58.431Z,16.90
2023-04-10T09:12:27.213Z,16.80
2023-04-10T09:14:57.885Z,17.00
2023-04-10T09:17:29.312Z,17.30
2023-04-10T09:19:59.196Z,17.60
2023-04-10T09:22:32.690Z,17.60
2023-04-10T09:25:02.375Z,17.80
2023-04-10T09:27:33.751Z,17.30
2023-04-10T09:30:02.488Z,17.30
2023-04-10T09:32:41.765Z,17.00
2023-04-10T09:35:14.668Z,16.90
2023-04-10T09:37:45.468Z,16.90
2023-04-10T09:40:24.572Z,16.70
2023-04-10T09:42:53.632Z,16.80
2023-04-10T09:45:23.057Z,17.00
2023-04-10T09:48:05.401Z,16.90
2023-04-10T09:50:41.917Z,17.10
2023-04-10T09:53:11.300Z,17.20
2023-04-10T09:55:39.917Z,17.20
2023-04-10T09:58:09.041Z,17.20
2023-04-10T10:00:43.826Z,17.20
2023-04-10T10:03:13.923Z,17.20
2023-04-10T10:05:45.496Z,17.20
2023-04-10T10:08:15.584Z,16.90
2023-04-10T10:10:48.204Z,17.10
2023-04-10T10:13:25.605Z,17.20
2023-04-10T10:16:08.740Z,17.30
2023-04-10T10:18:45.131Z,17.30
2023-04-10T10:21:15.800Z,17.30
2023-04-10T10:23:44.605Z,17.30
2023-04-10T10:26:13.449Z,17.50
2023-04-10T10:28:42.856Z,17.30
2023-04-10T10:31:12.457Z,17.40
2023-04-10T10:33:43.820Z,17.70
2023-04-10T10:36:15.100Z,17.90
2023-04-10T10:38:52.480Z,18.00
2023-04-10T10:41:27.676Z,17.70
2023-04-10T10:44:06.165Z,17.60
2023-04-10T10:46:39.854Z,17.80
2023-04-10T10:49:08.277Z,18.20
2023-04-10T10:51:49.285Z,18.60
2023-04-10T10:54:32.009Z,19.10
2023-04-10T10:57:00.918Z,19.50
2023-04-10T10:59:59.980Z,19.40
2023-04-10T11:02:28.384Z,18.90
2023-04-10T11:04:56.657Z,18.40
2023-04-10T11:08:01.735Z,18.20
2023-04-10T11:11:00.440Z,17.70
2023-04-10T11:13:28.998Z,17.40
2023-04-10T11:15:58.322Z,17.40
2023-04-10T11:19:14.062Z,17.80
2023-04-10T11:22:02.663Z,18.30
2023-04-10T11:24:54.508Z,18.50
2023-04-10T11:27:48.500Z,19.20
2023-04-10T11:30:38.796Z,19.00
2023-04-10T11:33:07.487Z,19.30
2023-04-10T11:35:35.887Z,19.20
2023-04-10T11:38:15.285Z,19.10
2023-04-10T11:41:05.452Z,18.80
2023-04-10T11:43:36.282Z,18.90
2023-04-10T11:46:08.833Z,18.40
2023-04-10T11:48:39.728Z,18.30
2023-04-10T11:51:10.124Z,18.30
2023-04-10T11:53:39.279Z,18.40
2023-04-10T11:56:26.533Z,18.60
2023-04-10T11:58:56.666Z,18.40
2023-04-10T12:01:47.335Z,18.50
2023-04-10T12:04:37.241Z,18.60
2023-04-10T12:07:10.998Z,18.70
2023-04-10T12:09:39.565Z,19.00
2023-04-10T12:12:13.298Z,19.10
2023-04-10T12:14:44.725Z,19.00
2023-04-10T12:17:14.180Z,19.10
2023-04-10T12:19:43.137Z,18.90
2023-04-10T12:22:17.036Z,18.90
2023-04-10T12:24:49.799Z,18.90
2023-04-10T12:27:20.845Z,18.50
2023-04-10T12:29:51.504Z,18.20
2023-04-10T12:32:20.779Z,18.00
2023-04-10T12:34:54.431Z,17.80
2023-04-10T12:37:27.358Z,17.60
2023-04-10T12:40:07.319Z,17.40
2023-04-10T12:42:42.023Z,17.20
2023-04-10T12:45:14.792Z,17.20
2023-04-10T12:47:47.729Z,17.30
2023-04-10T12:50:17.913Z,17.30
2023-04-10T12:52:48.162Z,17.50
2023-04-10T12:55:17.758Z,17.60
2023-04-10T12:57:49.406Z,17.50
2023-04-10T13:00:19.550Z,17.60
2023-04-10T13:02:49.077Z,17.70
2023-04-10T13:05:17.729Z,17.70
2023-04-10T13:07:46.021Z,17.60
2023-04-10T13:10:14.336Z,17.50
2023-04-10T13:12:47.630Z,17.30
2023-04-10T13:15:17.866Z,17.00
2023-04-10T13:17:46.432Z,16.70
2023-04-10T13:20:16.290Z,16.30
2023-04-10T13:22:44.757Z,15.70
2023-04-10T13:25:13.171Z,15.30
2023-04-10T13:27:43.502Z,15.20
2023-04-10T13:30:15.137Z,15.00
2023-04-10T13:32:46.172Z,14.80
2023-04-10T13:35:14.844Z,14.80
2023-04-10T13:37:43.364Z,14.70
2023-04-10T13:40:12.270Z,14.70
2023-04-10T13:42:43.788Z,14.70
2023-04-10T13:45:12.903Z,14.70
2023-04-10T13:47:46.260Z,14.80
2023-04-10T13:50:26.881Z,14.90
2023-04-10T13:52:55.907Z,15.00
2023-04-10T13:55:29.529Z,15.20
2023-04-10T13:58:03.149Z,15.40
2023-04-10T14:00:43.935Z,15.50
2023-04-10T14:03:12.880Z,15.60
2023-04-10T14:05:42.843Z,15.80
2023-04-10T14:08:16.042Z,16.00
2023-04-10T14:10:50.786Z,16.10
2023-04-10T14:13:19.269Z,16.30
2023-04-10T14:15:48.117Z,16.50
2023-04-10T14:18:19.977Z,16.50
2023-04-10T14:20:52.336Z,16.30
2023-04-10T14:23:23.085Z,16.20
2023-04-10T14:25:55.887Z,16.00
2023-04-10T14:28:25.574Z,15.80
2023-04-10T14:30:54.037Z,15.60
2023-04-10T14:33:22.648Z,15.50
2023-04-10T14:35:56.116Z,15.30
2023-04-10T14:38:26.180Z,15.30
2023-04-10T14:40:54.697Z,15.20
2023-04-10T14:43:31.800Z,15.10
2023-04-10T14:46:05.798Z,15.10
2023-04-10T14:48:34.332Z,15.10
2023-04-10T14:51:05.599Z,14.90
2023-04-10T14:53:34.225Z,14.90
2023-04-10T14:56:10.368Z,15.00
2023-04-10T14:58:39.149Z,15.00
2023-04-10T15:01:12.051Z,15.10
2023-04-10T15:03:43.523Z,15.20
2023-04-10T15:06:13.658Z,15.40
2023-04-10T15:08:47.364Z,15.60
2023-04-10T15:11:19.687Z,15.80
2023-04-10T15:13:49.117Z,16.00
2023-04-10T15:16:20.388Z,16.10
2023-04-10T15:18:55.355Z,16.20
2023-04-10T15:21:29.615Z,16.30
2023-04-10T15:23:58.259Z,16.40
2023-04-10T15:26:26.870Z,16.40
2023-04-10T15:28:55.437Z,16.50
2023-04-10T15:31:24.568Z,16.50
2023-04-10T15:33:58.812Z,16.50
2023-04-10T15:36:33.838Z,16.50
2023-04-10T15:39:05.369Z,16.30
2023-04-10T15:41:34.151Z,16.10
2023-04-10T15:44:02.760Z,16.00
2023-04-10T15:46:33.159Z,16.00
2023-04-10T15:49:02.550Z,16.00
2023-04-10T15:51:39.979Z,15.90
2023-04-10T15:54:09.223Z,15.90
2023-04-10T15:56:40.062Z,15.80
2023-04-10T15:59:10.857Z,15.70
2023-04-10T16:01:41.296Z,15.50
2023-04-10T16:04:13.213Z,15.40
2023-04-10T16:06:46.857Z,15.20
2023-04-10T16:11:52.024Z,15.00
2023-04-10T16:14:20.858Z,14.80
2023-04-10T16:16:51.362Z,14.70
2023-04-10T16:19:19.964Z,14.60
2023-04-10T16:21:57.385Z,14.40
2023-04-10T16:24:27.477Z,14.40
2023-04-10T16:26:56.598Z,14.20
2023-04-10T16:29:29.373Z,14.10
2023-04-10T16:32:06.912Z,14.00
2023-04-10T16:34:35.832Z,13.80
2023-04-10T16:37:05.728Z,13.70
2023-04-10T16:39:35.282Z,13.60
2023-04-10T16:42:04.970Z,13.50
2023-04-10T16:44:33.800Z,13.40
2023-04-10T16:47:02.320Z,13.30
2023-04-10T16:49:31.619Z,13.20
2023-04-10T16:52:02.081Z,13.10
2023-04-10T16:54:32.018Z,13.00
2023-04-10T16:57:01.405Z,12.90
2023-04-10T16:59:29.852Z,12.80
2023-04-10T17:01:58.425Z,12.60
2023-04-10T17:04:27.127Z,12.60
2023-04-10T17:06:55.635Z,12.40
2023-04-10T17:09:32.153Z,12.30
2023-04-10T17:12:01.124Z,12.20
2023-04-10T17:14:29.479Z,12.10
2023-04-10T17:16:57.898Z,12.00
2023-04-10T17:19:29.043Z,11.90
2023-04-10T17:21:57.469Z,11.80
2023-04-10T17:24:27.293Z,11.60
2023-04-10T17:26:59.056Z,11.60
2023-04-10T17:29:30.572Z,11.40
2023-04-10T17:32:03.094Z,11.40
2023-04-10T17:34:31.764Z,11.10
2023-04-10T17:37:01.307Z,11.20
2023-04-10T17:39:31.182Z,11.10
2023-04-10T17:42:01.685Z,11.10
2023-04-10T17:44:31.864Z,11.00
2023-04-10T17:47:02.479Z,10.90
2023-04-10T17:49:36.884Z,10.90
2023-04-10T17:52:05.418Z,10.80
2023-04-10T17:54:37.527Z,10.80
2023-04-10T17:57:08.205Z,10.70
2023-04-10T17:59:38.394Z,10.70
2023-04-10T18:02:08.738Z,10.60
2023-04-10T18:04:37.439Z,10.50
2023-04-10T18:07:08.448Z,10.40
2023-04-10T18:09:39.472Z,10.30
2023-04-10T18:12:14.345Z,10.30
2023-04-10T18:14:48.155Z,10.20
2023-04-10T18:17:16.602Z,10.10
2023-04-10T18:19:51.914Z,10.10
2023-04-10T18:22:22.386Z,10.00
2023-04-10T18:24:55.286Z,9.90
2023-04-10T18:27:25.197Z,9.90
2023-04-10T18:29:54.855Z,9.90
2023-04-10T18:32:26.500Z,9.90
2023-04-10T18:34:56.402Z,9.80
2023-04-10T18:37:27.392Z,9.80
2023-04-10T18:40:00.900Z,9.80
2023-04-10T18:42:43.997Z,9.80
2023-04-10T18:45:13.664Z,9.70
2023-04-10T18:47:42.210Z,9.70
2023-04-10T18:50:13.065Z,9.70
2023-04-10T18:52:41.578Z,9.60
2023-04-10T18:55:16.205Z,9.50
2023-04-10T18:57:46.003Z,9.50
2023-04-10T19:00:15.108Z,9.50
2023-04-10T19:02:43.556Z,9.40
2023-04-10T19:05:14.406Z,9.40
2023-04-10T19:07:56.561Z,9.30
2023-04-10T19:10:32.011Z,9.30
2023-04-10T19:13:04.432Z,9.30
2023-04-10T19:15:32.853Z,9.20
2023-04-10T19:18:01.381Z,9.20
2023-04-10T19:20:50.970Z,9.20
2023-04-10T19:23:22.692Z,9.20
2023-04-10T19:25:54.186Z,9.20
2023-04-10T19:28:27.582Z,9.30
2023-04-10T19:30:57.794Z,9.20
2023-04-10T19:33:28.187Z,9.30
2023-04-10T19:35:58.250Z,9.30
2023-04-10T19:38:29.444Z,9.30
2023-04-10T19:40:58.129Z,9.30
2023-04-10T19:43:28.079Z,9.30
2023-04-10T19:45:59.834Z,9.20
2023-04-10T19:48:28.372Z,9.20
2023-04-10T19:50:56.759Z,9.10
2023-04-10T19:53:25.080Z,9.10
2023-04-10T19:55:53.720Z,9.20
2023-04-10T19:58:38.961Z,8.90
2023-04-10T20:01:10.358Z,8.80
2023-04-10T20:03:39.069Z,8.70
2023-04-10T20:06:10.419Z,8.70
2023-04-10T20:08:38.856Z,8.60
2023-04-10T20:11:07.408Z,8.60
2023-04-10T20:13:35.640Z,8.50
2023-04-10T20:16:04.009Z,8.40
2023-04-10T20:18:34.022Z,8.40
2023-04-10T20:21:02.340Z,8.30
2023-04-10T20:23:30.697Z,8.20
2023-04-10T20:25:59.520Z,8.10
2023-04-10T20:28:28.040Z,8.10
2023-04-10T20:30:56.892Z,8.00
2023-04-10T20:33:25.595Z,8.00
2023-04-10T20:35:55.534Z,7.90
2023-04-10T20:38:24.071Z,7.90
2023-04-10T20:40:55.364Z,7.80
2023-04-10T20:43:23.809Z,7.80
2023-04-10T20:45:52.166Z,7.80
2023-04-10T20:48:20.584Z,7.60
2023-04-10T20:50:49.878Z,7.60
2023-04-10T20:53:19.705Z,7.50
2023-04-10T20:55:48.174Z,7.50
2023-04-10T20:58:16.475Z,7.40
2023-04-10T21:00:44.764Z,7.30
2023-04-10T21:03:13.275Z,7.30
2023-04-10T21:05:43.364Z,7.30
2023-04-10T21:08:15.488Z,7.20
2023-04-10T21:10:45.098Z,7.20
2023-04-10T21:13:14.342Z,7.10
2023-04-10T21:15:42.693Z,7.00
2023-04-10T21:18:11.519Z,7.00
2023-04-10T21:20:39.789Z,7.00
2023-04-10T21:23:08.157Z,6.90
2023-04-10T21:25:37.078Z,6.90
2023-04-10T21:28:06.651Z,6.80
2023-04-10T21:30:34.942Z,6.80
2023-04-10T21:33:03.319Z,6.80
2023-04-10T21:35:31.690Z,6.70
2023-04-10T21:38:02.050Z,6.70
2023-04-10T21:40:34.296Z,6.70
2023-04-10T21:43:02.819Z,6.60
2023-04-10T21:45:34.494Z,6.60
2023-04-10T21:48:02.815Z,6.50
2023-04-10T21:50:31.116Z,6.50
2023-04-10T21:53:00.187Z,6.40
2023-04-10T21:55:28.473Z,6.40
2023-04-10T21:57:56.675Z,6.30
2023-04-10T22:00:24.977Z,6.20
2023-04-10T22:02:54.739Z,6.20
2023-04-10T22:05:24.481Z,6.10
2023-04-10T22:07:53.581Z,6.10
2023-04-10T22:10:21.942Z,6.10
2023-04-10T22:12:50.258Z,6.00
2023-04-10T22:15:18.566Z,5.90
2023-04-10T22:17:46.904Z,5.90
2023-04-10T22:20:17.247Z,5.90
2023-04-10T22:22:45.679Z,5.80
2023-04-10T22:25:13.974Z,5.80
2023-04-10T22:27:42.194Z,5.90
2023-04-10T22:30:11.492Z,5.80
2023-04-10T22:32:39.712Z,5.80
2023-04-10T22:35:09.217Z,5.80
2023-04-10T22:37:38.784Z,5.70
2023-04-10T22:40:08.569Z,5.70
2023-04-10T22:42:36.817Z,5.60
2023-04-10T22:45:05.557Z,5.60
2023-04-10T22:47:33.761Z,5.60
2023-04-10T22:50:02.075Z,5.60
2023-04-10T22:52:30.263Z,5.50
2023-04-10T22:55:00.172Z,5.50
2023-04-10T22:57:28.367Z,5.50
2023-04-10T22:59:58.184Z,5.40
2023-04-10T23:02:28.453Z,5.40
2023-04-10T23:04:57.827Z,5.40
2023-04-10T23:07:27.929Z,5.40
2023-04-10T23:09:56.164Z,5.30
2023-04-10T23:12:26.412Z,5.20
2023-04-10T23:14:54.623Z,5.30
2023-04-10T23:17:22.899Z,5.20
2023-04-10T23:19:51.047Z,5.20
2023-04-10T23:22:19.259Z,5.20
2023-04-10T23:24:47.887Z,5.10
2023-04-10T23:27:16.048Z,5.10
2023-04-10T23:29:45.677Z,5.10
2023-04-10T23:32:13.917Z,5.10
2023-04-10T23:34:42.258Z,5.10
2023-04-10T23:37:10.538Z,5.00
2023-04-10T23:39:40.087Z,5.00
2023-04-10T23:42:08.508Z,4.90
2023-04-10T23:44:36.826Z,4.90
2023-04-10T23:47:07.253Z,4.90
2023-04-10T23:49:35.994Z,5.00
2023-04-10T23:52:04.397Z,4.80
2023-04-10T23:54:33.969Z,4.80
2023-04-10T23:57:02.189Z,4.80
2023-04-10T23:59:30.358Z,4.70
